createdAt,value
2022-08-11T00:02:06.710Z,46.43
2022-08-11T00:04:46.647Z,46.46
2022-08-11T00:07:20.142Z,47.23
2022-08-11T00:09:51.156Z,46.61
2022-08-11T00:12:21.659Z,46.74
2022-08-11T00:15:01.385Z,46.46
2022-08-11T00:17:34.470Z,46.25
2022-08-11T00:20:12.649Z,46.26
2022-08-11T00:22:50.727Z,46.40
2022-08-11T00:25:23.773Z,46.35
2022-08-11T00:27:54.059Z,46.14
2022-08-11T00:30:24.714Z,45.89
2022-08-11T00:32:59.087Z,45.45
2022-08-11T00:35:51.851Z,45.32
2022-08-11T00:38:34.967Z,45.04
2022-08-11T00:41:21.378Z,45.42
2022-08-11T00:44:09.248Z,45.25
2022-08-11T00:46:54.089Z,45.78
2022-08-11T00:49:41.516Z,45.54
2022-08-11T00:52:30.742Z,45.20
2022-08-11T00:56:05.297Z,44.71
2022-08-11T00:59:34.178Z,44.61
2022-08-11T01:02:20.281Z,45.22
2022-08-11T01:05:31.937Z,45.11
2022-08-11T01:09:01.881Z,45.38
2022-08-11T01:16:19.727Z,43.59
2022-08-11T01:20:47.805Z,43.74
2022-08-11T01:23:19.825Z,43.65
2022-08-11T01:26:33.116Z,43.29
2022-08-11T01:29:49.117Z,43.05
2022-08-11T01:33:16.691Z,42.78
2022-08-11T01:36:41.250Z,43.64
2022-08-11T01:40:11.040Z,43.48
2022-08-11T01:43:34.940Z,43.18
2022-08-11T01:46:14.248Z,43.44
2022-08-11T01:48:52.902Z,43.17
2022-08-11T01:51:47.840Z,42.92
2022-08-11T01:54:29.734Z,43.04
2022-08-11T01:57:16.439Z,42.91
2022-08-11T01:59:52.959Z,43.24
2022-08-11T02:02:50.191Z,43.22
2022-08-11T02:05:44.728Z,43.02
2022-08-11T02:08:34.241Z,43.76
2022-08-11T02:11:35.614Z,43.81
2022-08-11T02:14:29.509Z,44.76
2022-08-11T02:17:17.054Z,43.84
2022-08-11T02:20:12.084Z,43.77
2022-08-11T02:23:09.832Z,44.53
2022-08-11T02:25:54.242Z,44.75
2022-08-11T02:28:38.350Z,45.41
2022-08-11T02:32:11.076Z,44.26
2022-08-11T02:34:39.740Z,44.82
2022-08-11T02:37:24.436Z,46.02
2022-08-11T02:40:21.088Z,45.22
2022-08-11T02:43:20.493Z,45.80
2022-08-11T02:46:06.851Z,46.64
2022-08-11T02:49:05.860Z,46.33
2022-08-11T02:51:43.994Z,45.67
2022-08-11T02:54:26.425Z,46.15
2022-08-11T02:57:04.314Z,47.13
2022-08-11T02:59:53.866Z,46.87
2022-08-11T03:02:59.943Z,46.56
2022-08-11T03:05:52.864Z,46.98
2022-08-11T03:08:51.398Z,46.21
2022-08-11T03:12:00.257Z,46.92
2022-08-11T03:14:53.449Z,47.22
2022-08-11T03:17:33.828Z,47.68
2022-08-11T03:20:21.983Z,47.70
2022-08-11T03:23:01.906Z,47.27
2022-08-11T03:25:40.752Z,48.08
2022-08-11T03:28:26.081Z,47.93
2022-08-11T03:31:19.353Z,47.88
2022-08-11T03:34:07.277Z,48.71
2022-08-11T03:37:39.557Z,48.42
2022-08-11T03:40:44.171Z,48.35
2022-08-11T03:43:29.683Z,49.14
2022-08-11T03:46:10.859Z,49.14
2022-08-11T03:48:52.178Z,48.08
2022-08-11T03:51:44.898Z,48.29
2022-08-11T03:54:32.613Z,48.32
2022-08-11T03:57:52.386Z,48.12
2022-08-11T04:01:17.030Z,48.17
2022-08-11T04:04:51.282Z,48.49
2022-08-11T04:08:00.843Z,48.33
2022-08-11T04:11:24.435Z,48.35
2022-08-11T04:14:51.254Z,48.21
2022-08-11T04:18:00.920Z,48.46
2022-08-11T04:21:24.891Z,48.61
2022-08-11T04:24:48.394Z,49.20
2022-08-11T04:28:05.200Z,49.10
2022-08-11T04:31:01.021Z,47.60
2022-08-11T04:34:06.884Z,49.06
2022-08-11T04:37:37.188Z,49.34
2022-08-11T04:40:40.085Z,50.24
2022-08-11T04:44:06.646Z,50.84
2022-08-11T04:47:58.115Z,50.75
2022-08-11T04:51:16.646Z,50.89
2022-08-11T04:54:14.477Z,51.17
2022-08-11T04:57:00.724Z,51.44
2022-08-11T05:00:08.544Z,51.72
2022-08-11T05:03:28.737Z,51.63
2022-08-11T05:06:49.917Z,51.64
2022-08-11T05:09:39.520Z,51.73
2022-08-11T05:12:44.966Z,51.71
2022-08-11T05:15:31.771Z,51.26
2022-08-11T05:18:32.832Z,52.30
2022-08-11T05:21:23.421Z,51.86
2022-08-11T05:24:23.094Z,51.22
2022-08-11T05:27:11.306Z,49.76
2022-08-11T05:30:00.704Z,48.18
2022-08-11T05:32:50.843Z,47.51
2022-08-11T05:36:00.734Z,46.94
2022-08-11T05:38:41.983Z,46.81
2022-08-11T05:41:28.338Z,46.22
2022-08-11T05:44:20.552Z,46.00
2022-08-11T05:47:05.798Z,45.58
2022-08-11T05:49:50.152Z,45.32
2022-08-11T05:52:41.626Z,44.88
2022-08-11T05:55:26.703Z,44.74
2022-08-11T05:58:05.851Z,44.43
2022-08-11T06:00:45.912Z,44.77
2022-08-11T06:03:28.294Z,43.92
2022-08-11T06:06:01.360Z,43.89
2022-08-11T06:08:36.128Z,43.23
2022-08-11T06:11:09.041Z,43.29
2022-08-11T06:13:48.018Z,42.62
2022-08-11T06:16:25.576Z,42.65
2022-08-11T06:18:56.866Z,42.17
2022-08-11T06:21:27.889Z,41.72
2022-08-11T06:23:59.568Z,41.55
2022-08-11T06:26:30.381Z,41.01
2022-08-11T06:29:03.948Z,40.70
2022-08-11T06:31:36.720Z,40.38
2022-08-11T06:34:27.360Z,40.07
2022-08-11T06:37:11.596Z,39.70
2022-08-11T06:39:48.805Z,39.06
2022-08-11T06:42:39.404Z,38.77
2022-08-11T06:45:28.713Z,38.75
2022-08-11T06:48:03.098Z,38.47
2022-08-11T06:50:47.188Z,38.03
2022-08-11T06:53:21.431Z,37.92
2022-08-11T06:56:05.331Z,37.54
2022-08-11T06:58:54.768Z,36.76
2022-08-11T07:01:46.770Z,35.26
2022-08-11T07:04:43.354Z,35.08
2022-08-11T07:08:34.114Z,35.09
2022-08-11T07:12:02.736Z,34.69
2022-08-11T07:14:46.987Z,33.20
2022-08-11T07:17:24.307Z,32.72
2022-08-11T07:20:11.566Z,33.05
2022-08-11T07:22:55.116Z,32.92
2022-08-11T07:25:38.601Z,32.45
2022-08-11T07:28:28.080Z,32.00
2022-08-11T07:31:06.698Z,31.72
2022-08-11T07:34:08.240Z,31.38
2022-08-11T07:36:43.429Z,31.66
2022-08-11T07:39:23.815Z,31.33
2022-08-11T07:41:57.398Z,31.11
2022-08-11T07:44:34.704Z,29.94
2022-08-11T07:47:18.125Z,27.95
2022-08-11T07:50:05.983Z,27.11
2022-08-11T07:52:40.824Z,27.59
2022-08-11T07:55:17.593Z,27.97
2022-08-11T07:58:15.974Z,27.74
2022-08-11T08:01:10.727Z,27.11
2022-08-11T08:04:06.499Z,27.04
2022-08-11T08:06:53.356Z,25.88
2022-08-11T08:09:38.435Z,26.03
2022-08-11T08:12:23.401Z,25.87
2022-08-11T08:15:07.312Z,25.64
2022-08-11T08:18:09.137Z,25.72
2022-08-11T08:20:45.656Z,24.79
2022-08-11T08:23:33.183Z,24.66
2022-08-11T08:26:26.480Z,23.92
2022-08-11T08:29:18.398Z,23.72
2022-08-11T08:31:48.585Z,22.21
2022-08-11T08:34:19.864Z,21.93
2022-08-11T08:36:53.326Z,21.24
2022-08-11T08:39:26.617Z,20.32
2022-08-11T08:42:00.493Z,19.85
2022-08-11T08:44:41.438Z,19.09
2022-08-11T08:47:42.365Z,18.45
2022-08-11T08:50:16.784Z,18.59
2022-08-11T08:52:56.540Z,17.91
2022-08-11T08:55:30.644Z,17.37
2022-08-11T08:58:03.185Z,17.68
2022-08-11T09:00:43.782Z,17.67
2022-08-11T09:03:40.644Z,18.75
2022-08-11T09:06:05.055Z,17.89
2022-08-11T09:08:36.498Z,18.21
2022-08-11T09:11:22.102Z,19.39
2022-08-11T09:14:04.761Z,19.15
2022-08-11T09:16:39.115Z,19.42
2022-08-11T09:19:11.244Z,20.87
2022-08-11T09:21:49.122Z,20.48
2022-08-11T09:24:33.732Z,19.48
2022-08-11T09:27:09.742Z,17.87
2022-08-11T09:29:41.659Z,17.53
2022-08-11T09:32:11.943Z,17.92
2022-08-11T09:34:42.309Z,18.96
2022-08-11T09:37:53.768Z,18.91
2022-08-11T09:40:33.882Z,19.80
2022-08-11T09:43:22.511Z,18.79
2022-08-11T09:45:55.493Z,17.98
2022-08-11T09:48:29.049Z,17.40
2022-08-11T09:51:02.812Z,16.70
2022-08-11T09:53:41.618Z,17.12
2022-08-11T09:56:34.025Z,16.26
2022-08-11T09:59:08.644Z,15.83
2022-08-11T10:01:47.284Z,15.87
2022-08-11T10:04:21.805Z,15.74
2022-08-11T10:07:04.399Z,15.84
2022-08-11T10:09:42.124Z,15.53
2022-08-11T10:12:17.925Z,15.54
2022-08-11T10:15:10.284Z,15.33
2022-08-11T10:18:01.578Z,15.72
2022-08-11T10:20:33.646Z,15.39
2022-08-11T10:23:17.818Z,14.95
2022-08-11T10:26:00.956Z,15.24
2022-08-11T10:28:49.693Z,15.07
2022-08-11T10:31:56.933Z,15.31
2022-08-11T10:34:29.222Z,14.83
2022-08-11T10:37:03.219Z,15.34
2022-08-11T10:39:33.731Z,16.29
2022-08-11T10:42:25.797Z,16.12
2022-08-11T10:45:30.897Z,16.34
2022-08-11T10:48:02.456Z,15.26
2022-08-11T10:50:45.877Z,15.57
2022-08-11T10:53:29.917Z,15.53
2022-08-11T10:56:14.024Z,15.22
2022-08-11T10:58:51.660Z,15.42
2022-08-11T11:01:26.903Z,15.58
2022-08-11T11:04:05.284Z,16.30
2022-08-11T11:06:44.963Z,16.38
2022-08-11T11:09:22.006Z,15.40
2022-08-11T11:12:09.701Z,15.19
2022-08-11T11:14:59.413Z,15.11
2022-08-11T11:17:47.270Z,14.67
2022-08-11T11:20:34.593Z,14.90
2022-08-11T11:23:29.698Z,15.63
2022-08-11T11:26:38.511Z,16.60
2022-08-11T11:29:25.274Z,15.43
2022-08-11T11:32:19.894Z,15.41
2022-08-11T11:35:12.538Z,14.74
2022-08-11T11:38:03.504Z,14.02
2022-08-11T11:40:37.588Z,13.90
2022-08-11T11:43:08.809Z,13.92
2022-08-11T11:45:39.542Z,13.68
2022-08-11T11:48:10.597Z,14.00
2022-08-11T11:50:41.900Z,13.62
2022-08-11T11:53:16.217Z,13.38
2022-08-11T11:55:46.786Z,13.27
2022-08-11T11:58:29.743Z,12.79
2022-08-11T12:01:13.782Z,12.94
2022-08-11T12:03:45.295Z,12.66
2022-08-11T12:06:17.379Z,12.64
2022-08-11T12:08:53.621Z,12.40
2022-08-11T12:11:39.698Z,12.61
2022-08-11T12:14:12.707Z,12.22
2022-08-11T12:16:45.850Z,12.11
2022-08-11T12:19:18.865Z,12.48
2022-08-11T12:22:02.079Z,12.61
2022-08-11T12:24:50.418Z,12.88
2022-08-11T12:27:25.261Z,13.17
2022-08-11T12:30:00.203Z,12.74
2022-08-11T12:32:35.210Z,12.80
2022-08-11T12:35:06.587Z,12.98
2022-08-11T12:37:43.809Z,13.17
2022-08-11T12:41:11.921Z,13.50
2022-08-11T12:43:46.511Z,13.62
2022-08-11T12:46:32.749Z,13.69
2022-08-11T12:49:22.288Z,13.92
2022-08-11T12:52:14.965Z,14.15
2022-08-11T12:54:57.211Z,14.05
2022-08-11T12:57:47.978Z,13.99
2022-08-11T13:00:32.495Z,13.55
2022-08-11T13:03:16.422Z,13.20
2022-08-11T13:05:49.712Z,13.13
2022-08-11T13:08:21.129Z,13.38
2022-08-11T13:11:07.167Z,13.15
2022-08-11T13:13:54.497Z,12.67
2022-08-11T13:16:29.664Z,11.78
2022-08-11T13:19:02.435Z,11.82
2022-08-11T13:21:33.604Z,11.51
2022-08-11T13:24:04.930Z,11.33
2022-08-11T13:26:49.396Z,11.16
2022-08-11T13:29:26.417Z,11.54
2022-08-11T13:32:00.383Z,11.43
2022-08-11T13:34:34.445Z,11.66
2022-08-11T13:37:06.398Z,11.08
2022-08-11T13:39:39.722Z,10.77
2022-08-11T13:42:10.453Z,11.36
2022-08-11T13:44:45.719Z,11.67
2022-08-11T13:47:18.788Z,11.10
2022-08-11T13:49:49.041Z,10.94
2022-08-11T13:52:21.027Z,10.98
2022-08-11T13:54:54.388Z,10.27
2022-08-11T13:58:06.694Z,10.86
2022-08-11T14:00:23.397Z,10.44
2022-08-11T14:03:00.412Z,10.22
2022-08-11T14:05:36.195Z,9.75
2022-08-11T14:08:37.670Z,9.94
2022-08-11T14:12:21.618Z,9.64
2022-08-11T14:14:16.952Z,9.97
2022-08-11T14:16:51.786Z,9.71
2022-08-11T14:19:27.887Z,10.04
2022-08-11T14:22:11.554Z,9.81
2022-08-11T14:24:45.406Z,10.08
2022-08-11T14:28:30.144Z,9.79
2022-08-11T14:30:30.716Z,10.17
2022-08-11T14:33:16.525Z,9.88
2022-08-11T14:35:48.788Z,10.00
2022-08-11T14:38:20.941Z,9.84
2022-08-11T14:41:04.238Z,9.74
2022-08-11T14:44:12.492Z,9.63
2022-08-11T14:46:50.789Z,9.81
2022-08-11T14:49:24.639Z,9.74
2022-08-11T14:51:57.346Z,9.94
2022-08-11T14:54:43.851Z,9.64
2022-08-11T14:57:14.494Z,9.75
2022-08-11T14:59:48.623Z,9.62
2022-08-11T15:02:32.199Z,9.51
2022-08-11T15:05:08.171Z,9.58
2022-08-11T15:07:39.629Z,9.64
2022-08-11T15:10:13.860Z,9.23
2022-08-11T15:12:45.185Z,9.41
2022-08-11T15:15:29.228Z,9.72
2022-08-11T15:18:02.540Z,9.87
2022-08-11T15:20:53.840Z,9.85
2022-08-11T15:23:36.915Z,10.03
2022-08-11T15:26:12.280Z,10.24
2022-08-11T15:28:59.741Z,10.14
2022-08-11T15:31:49.555Z,10.45
2022-08-11T15:34:37.078Z,10.26
2022-08-11T15:37:25.762Z,10.78
2022-08-11T15:40:31.539Z,11.29
2022-08-11T15:43:22.720Z,11.61
2022-08-11T15:46:02.433Z,11.99
2022-08-11T15:48:46.371Z,15.26
2022-08-11T15:51:25.137Z,15.68
2022-08-11T15:54:03.708Z,16.25
2022-08-11T15:56:41.551Z,16.51
2022-08-11T15:59:41.827Z,16.65
2022-08-11T16:02:29.741Z,17.44
2022-08-11T16:05:02.137Z,17.15
2022-08-11T16:07:39.111Z,17.53
2022-08-11T16:10:19.341Z,18.18
2022-08-11T16:13:09.344Z,18.06
2022-08-11T16:16:12.578Z,18.21
2022-08-11T16:18:51.618Z,18.91
2022-08-11T16:21:35.011Z,19.60
2022-08-11T16:27:03.233Z,18.38
2022-08-11T16:27:14.279Z,19.18
2022-08-11T16:29:49.024Z,20.02
2022-08-11T16:32:24.181Z,19.98
2022-08-11T16:35:13.695Z,20.25
2022-08-11T16:37:59.175Z,20.57
2022-08-11T16:40:30.239Z,20.52
2022-08-11T16:43:22.303Z,20.55
2022-08-11T16:46:05.535Z,20.63
2022-08-11T16:48:39.910Z,20.56
2022-08-11T16:51:11.427Z,21.19
2022-08-11T16:53:59.929Z,21.17
2022-08-11T16:56:38.681Z,21.69
2022-08-11T16:59:17.673Z,21.50
2022-08-11T17:01:54.987Z,21.80
2022-08-11T17:04:46.692Z,21.12
2022-08-11T17:07:42.092Z,21.59
2022-08-11T17:10:53.459Z,21.92
2022-08-11T17:13:32.285Z,21.95
2022-08-11T17:16:11.784Z,22.37
2022-08-11T17:18:51.253Z,22.47
2022-08-11T17:21:26.396Z,22.60
2022-08-11T17:24:05.062Z,22.41
2022-08-11T17:26:59.760Z,22.83
2022-08-11T17:29:53.651Z,23.04
2022-08-11T17:32:57.060Z,22.93
2022-08-11T17:35:35.968Z,23.41
2022-08-11T17:38:10.778Z,23.45
2022-08-11T17:41:02.911Z,23.56
2022-08-11T17:43:48.992Z,23.49
2022-08-11T17:46:33.160Z,23.51
2022-08-11T17:49:07.731Z,23.45
2022-08-11T17:51:51.555Z,23.99
2022-08-11T17:54:36.487Z,23.72
2022-08-11T17:57:21.236Z,23.74
2022-08-11T17:59:57.984Z,24.03
2022-08-11T18:02:49.426Z,23.73
2022-08-11T18:05:27.155Z,24.41
2022-08-11T18:08:18.958Z,23.91
2022-08-11T18:11:03.495Z,24.05
2022-08-11T18:13:49.736Z,24.28
2022-08-11T18:16:34.424Z,24.50
2022-08-11T18:19:17.074Z,24.65
2022-08-11T18:22:15.810Z,24.63
2022-08-11T18:25:05.825Z,25.03
2022-08-11T18:27:51.606Z,24.82
2022-08-11T18:30:34.554Z,25.28
2022-08-11T18:33:44.658Z,24.99
2022-08-11T18:36:27.200Z,25.21
2022-08-11T18:39:14.236Z,25.23
2022-08-11T18:41:58.522Z,25.39
2022-08-11T18:44:45.840Z,25.43
2022-08-11T18:47:30.748Z,25.65
2022-08-11T18:50:25.111Z,25.97
2022-08-11T18:53:23.769Z,26.22
2022-08-11T18:56:09.629Z,26.57
2022-08-11T18:58:57.078Z,26.53
2022-08-11T19:01:45.566Z,26.21
2022-08-11T19:04:30.090Z,26.61
2022-08-11T19:07:18.786Z,26.71
2022-08-11T19:10:05.779Z,26.95
2022-08-11T19:12:56.939Z,27.06
2022-08-11T19:15:40.622Z,26.86
2022-08-11T19:18:23.933Z,26.90
2022-08-11T19:21:08.019Z,26.87
2022-08-11T19:23:58.913Z,27.40
2022-08-11T19:26:43.791Z,27.37
2022-08-11T19:30:07.758Z,27.09
2022-08-11T19:32:35.580Z,27.29
2022-08-11T19:35:19.417Z,27.60
2022-08-11T19:38:04.624Z,27.75
2022-08-11T19:40:48.555Z,27.64
2022-08-11T19:43:34.046Z,27.71
2022-08-11T19:46:22.407Z,27.79
2022-08-11T19:49:09.340Z,27.78
2022-08-11T19:51:54.622Z,28.03
2022-08-11T19:54:41.596Z,27.92
2022-08-11T19:57:24.676Z,28.41
2022-08-11T20:00:07.592Z,28.67
2022-08-11T20:02:52.918Z,28.89
2022-08-11T20:05:37.059Z,28.61
2022-08-11T20:08:22.293Z,28.94
2022-08-11T20:11:07.426Z,28.61
2022-08-11T20:13:52.902Z,28.74
2022-08-11T20:16:38.623Z,28.53
2022-08-11T20:19:26.160Z,28.69
2022-08-11T20:22:30.319Z,28.70
2022-08-11T20:25:13.077Z,28.91
2022-08-11T20:27:57.795Z,29.05
2022-08-11T20:30:40.563Z,29.32
2022-08-11T20:33:24.667Z,29.11
2022-08-11T20:36:10.156Z,29.51
2022-08-11T20:38:54.606Z,29.32
2022-08-11T20:41:58.643Z,29.48
2022-08-11T20:44:44.956Z,29.38
2022-08-11T20:47:30.012Z,29.67
2022-08-11T20:50:20.319Z,30.16
2022-08-11T20:53:07.461Z,30.00
2022-08-11T20:55:53.078Z,29.89
2022-08-11T21:01:42.188Z,29.86
2022-08-11T21:04:24.983Z,29.86
2022-08-11T21:07:08.639Z,29.93
2022-08-11T21:10:01.163Z,29.90
2022-08-11T21:12:55.972Z,30.12
2022-08-11T21:16:01.332Z,30.18
2022-08-11T21:18:46.581Z,31.50
2022-08-11T21:21:30.990Z,32.14
2022-08-11T21:24:34.203Z,32.34
2022-08-11T21:27:24.719Z,32.58
2022-08-11T21:30:08.418Z,32.77
2022-08-11T21:32:52.497Z,32.92
2022-08-11T21:35:36.378Z,33.43
2022-08-11T21:38:28.811Z,33.27
2022-08-11T21:41:19.085Z,33.72
2022-08-11T21:44:08.539Z,33.83
2022-08-11T21:46:53.675Z,33.85
2022-08-11T21:49:38.705Z,34.31
2022-08-11T21:52:21.708Z,34.16
2022-08-11T21:55:05.553Z,34.79
2022-08-11T21:57:50.280Z,35.05
2022-08-11T22:00:35.829Z,34.70
2022-08-11T22:03:20.552Z,34.26
2022-08-11T22:06:03.795Z,34.25
2022-08-11T22:08:46.498Z,34.87
2022-08-11T22:11:32.356Z,35.15
2022-08-11T22:14:16.446Z,34.82
2022-08-11T22:17:01.974Z,35.16
2022-08-11T22:19:45.249Z,35.14
2022-08-11T22:22:29.031Z,35.10
2022-08-11T22:25:16.531Z,35.13
2022-08-11T22:28:01.550Z,35.37
2022-08-11T22:30:44.426Z,35.33
2022-08-11T22:33:30.135Z,35.41
2022-08-11T22:36:14.822Z,35.53
2022-08-11T22:39:00.929Z,35.93
2022-08-11T22:41:44.091Z,36.33
2022-08-11T22:44:27.428Z,36.49
2022-08-11T22:47:13.513Z,36.38
2022-08-11T22:50:03.045Z,36.66
2022-08-11T22:52:46.499Z,36.31
2022-08-11T22:55:30.574Z,36.60
2022-08-11T22:58:13.872Z,36.55
2022-08-11T23:00:56.910Z,36.78
2022-08-11T23:03:40.950Z,37.00
2022-08-11T23:06:26.940Z,37.29
2022-08-11T23:09:10.636Z,37.11
2022-08-11T23:12:05.977Z,37.78
2022-08-11T23:14:50.997Z,37.27
2022-08-11T23:17:33.820Z,37.24
2022-08-11T23:20:40.982Z,37.52
2022-08-11T23:23:23.087Z,37.99
2022-08-11T23:26:08.064Z,38.23
2022-08-11T23:28:51.125Z,38.72
2022-08-11T23:31:50.388Z,38.79
2022-08-11T23:35:03.022Z,38.40
2022-08-11T23:37:39.873Z,38.73
2022-08-11T23:40:26.897Z,39.07
2022-08-11T23:43:10.488Z,39.35
2022-08-11T23:45:53.246Z,39.19
2022-08-11T23:48:37.415Z,39.12
2022-08-11T23:51:21.620Z,39.38
2022-08-11T23:54:07.653Z,39.51
2022-08-11T23:56:54.128Z,39.78
2022-08-11T23:59:37.221Z,39.60
